Time;durP1;ratioP1;P1;durP2;ratioP2;P2;SDS_P1;SDS_P2;PMS_P1;PMS_P2;Temp;Humidity;BMP_temperature;BMP_pressure;BME280_temperature;BME280_humidity;BME280_pressure;Samples;Min_cycle;Max_cycle;Signal;HPM_P1;HPM_P2
2022/10/17 00:02:26;;;;;;;60.67;4.30;;;;;;;;;;5112089;28;20444;-71
2022/10/17 00:04:53;;;;;;;59.17;3.87;;;;;;;;;;5112214;28;20462;-70
2022/10/17 00:07:20;;;;;;;61.13;4.17;;;;;;;;;;5112068;28;20473;-70
2022/10/17 00:09:49;;;;;;;61.87;4.13;;;;;;;;;;5111561;28;20444;-70
2022/10/17 00:12:16;;;;;;;58.90;3.60;;;;;;;;;;5113619;28;20986;-70
2022/10/17 00:14:43;;;;;;;58.30;3.17;;;;;;;;;;5116313;28;20452;-71
2022/10/17 00:17:10;;;;;;;60.17;3.73;;;;;;;;;;5116127;28;20478;-71
2022/10/17 00:19:37;;;;;;;60.20;4.13;;;;;;;;;;5115849;28;21009;-70
2022/10/17 00:22:04;;;;;;;59.57;3.70;;;;;;;;;;5115721;28;20538;-70
2022/10/17 00:24:31;;;;;;;58.37;3.10;;;;;;;;;;5116264;28;20453;-71
2022/10/17 00:27:00;;;;;;;59.70;3.20;;;;;;;;;;5116026;28;20468;-70
2022/10/17 00:29:27;;;;;;;60.40;4.93;;;;;;;;;;5115385;28;20444;-70
2022/10/17 00:31:55;;;;;;;60.30;3.70;;;;;;;;;;5116025;28;20932;-71
2022/10/17 00:34:22;;;;;;;59.60;4.10;;;;;;;;;;5115384;28;20464;-70
2022/10/17 00:36:50;;;;;;;58.50;3.47;;;;;;;;;;5115873;28;20979;-71
2022/10/17 00:39:17;;;;;;;60.30;4.17;;;;;;;;;;5115730;28;20497;-71
2022/10/17 00:41:44;;;;;;;59.53;3.40;;;;;;;;;;5116290;28;20444;-70
2022/10/17 00:44:26;;;;;;;60.07;3.80;;;;;;;;;;5115397;28;20456;-71
2022/10/17 00:46:54;;;;;;;60.40;3.90;;;;;;;;;;5115071;28;20474;-70
2022/10/17 00:49:23;;;;;;;58.80;3.77;;;;;;;;;;5115429;28;20440;-70
2022/10/17 00:51:51;;;;;;;58.60;3.33;;;;;;;;;;5115598;28;20947;-71
2022/10/17 00:54:22;;;;;;;60.90;6.00;;;;;;;;;;5116118;28;20449;-70
2022/10/17 00:56:49;;;;;;;58.77;3.17;;;;;;;;;;5114802;28;20475;-71
2022/10/17 00:59:17;;;;;;;58.27;2.97;;;;;;;;;;5115290;28;21036;-70
2022/10/17 01:01:47;;;;;;;58.93;3.40;;;;;;;;;;5115591;28;20469;-70
2022/10/17 01:04:16;;;;;;;58.90;3.33;;;;;;;;;;5115449;28;20448;-71
2022/10/17 01:06:43;;;;;;;58.10;2.97;;;;;;;;;;5115221;28;20468;-71
2022/10/17 01:09:10;;;;;;;59.00;4.20;;;;;;;;;;5114242;28;20798;-71
2022/10/17 01:11:40;;;;;;;58.27;2.90;;;;;;;;;;5115510;28;20447;-71
2022/10/17 01:14:09;;;;;;;58.40;3.00;;;;;;;;;;5115417;28;20539;-71
2022/10/17 01:16:40;;;;;;;59.30;3.97;;;;;;;;;;5115106;28;20475;-71
2022/10/17 01:19:13;;;;;;;58.07;3.07;;;;;;;;;;5114250;28;20480;-71
2022/10/17 01:21:45;;;;;;;58.90;3.50;;;;;;;;;;5114822;28;20470;-71
2022/10/17 01:24:28;;;;;;;58.60;3.00;;;;;;;;;;5113941;28;20454;-71
2022/10/17 01:27:07;;;;;;;59.57;3.10;;;;;;;;;;5114775;28;20550;-70
2022/10/17 01:29:42;;;;;;;59.77;3.10;;;;;;;;;;5114611;28;20440;-70
2022/10/17 01:32:13;;;;;;;58.20;3.37;;;;;;;;;;5113995;28;20447;-71
2022/10/17 01:34:45;;;;;;;58.30;3.00;;;;;;;;;;5114786;28;20456;-70
2022/10/17 01:37:17;;;;;;;58.33;2.90;;;;;;;;;;5114839;28;20464;-70
2022/10/17 01:39:47;;;;;;;57.93;2.97;;;;;;;;;;5114358;28;20487;-70
2022/10/17 01:42:16;;;;;;;59.10;3.10;;;;;;;;;;5113949;28;20446;-71
2022/10/17 01:44:46;;;;;;;58.27;3.20;;;;;;;;;;5112705;28;20458;-70
2022/10/17 01:47:18;;;;;;;58.40;3.27;;;;;;;;;;5114557;28;20909;-70
2022/10/17 01:49:46;;;;;;;58.80;3.53;;;;;;;;;;5114123;28;20441;-71
2022/10/17 01:52:15;;;;;;;61.00;3.07;;;;;;;;;;5114655;27;20451;-71
2022/10/17 01:54:45;;;;;;;58.50;3.87;;;;;;;;;;5113646;28;20469;-70
2022/10/17 01:57:14;;;;;;;58.60;2.97;;;;;;;;;;5114443;27;20465;-71
2022/10/17 01:59:42;;;;;;;58.87;3.43;;;;;;;;;;5114047;28;20488;-70
2022/10/17 02:02:10;;;;;;;59.47;3.77;;;;;;;;;;5114738;28;20470;-70
2022/10/17 02:04:38;;;;;;;58.77;2.93;;;;;;;;;;5114049;28;20475;-71
2022/10/17 02:07:09;;;;;;;58.67;3.20;;;;;;;;;;5113854;28;20456;-70
2022/10/17 02:09:36;;;;;;;59.17;3.40;;;;;;;;;;5113756;28;20453;-71
2022/10/17 02:12:11;;;;;;;58.70;3.13;;;;;;;;;;5114217;27;20469;-70
2022/10/17 02:14:42;;;;;;;60.63;3.33;;;;;;;;;;5114598;28;20441;-71
2022/10/17 02:17:13;;;;;;;59.50;3.03;;;;;;;;;;5113167;28;20497;-70
2022/10/17 02:19:47;;;;;;;58.97;3.40;;;;;;;;;;5113820;28;20495;-70
2022/10/17 02:22:21;;;;;;;58.50;3.03;;;;;;;;;;5113958;27;20452;-70
2022/10/17 02:24:50;;;;;;;58.50;3.27;;;;;;;;;;5113926;28;20448;-70
2022/10/17 02:27:24;;;;;;;58.60;3.20;;;;;;;;;;5113694;28;20467;-70
2022/10/17 02:29:56;;;;;;;58.70;3.00;;;;;;;;;;5112841;28;20446;-71
2022/10/17 02:32:25;;;;;;;58.20;3.20;;;;;;;;;;5113695;28;20452;-71
2022/10/17 02:34:56;;;;;;;58.80;3.00;;;;;;;;;;5113229;28;20455;-70
2022/10/17 02:37:25;;;;;;;59.13;3.33;;;;;;;;;;5113590;28;20469;-70
2022/10/17 02:39:54;;;;;;;59.00;2.90;;;;;;;;;;5112432;27;20995;-71
2022/10/17 02:42:22;;;;;;;59.60;3.60;;;;;;;;;;5113357;28;20953;-71
2022/10/17 02:44:49;;;;;;;58.17;2.77;;;;;;;;;;5113585;28;20447;-71
2022/10/17 02:47:19;;;;;;;58.60;2.73;;;;;;;;;;5113381;28;20833;-71
2022/10/17 02:49:51;;;;;;;58.73;3.20;;;;;;;;;;5113193;28;20944;-70
2022/10/17 02:52:23;;;;;;;57.90;2.70;;;;;;;;;;5112599;28;20443;-70
2022/10/17 02:54:52;;;;;;;58.27;3.00;;;;;;;;;;5113544;28;20454;-71
2022/10/17 02:57:23;;;;;;;60.07;3.57;;;;;;;;;;5113101;28;20979;-71
2022/10/17 02:59:50;;;;;;;58.00;2.80;;;;;;;;;;5113043;28;20505;-71
2022/10/17 03:02:18;;;;;;;58.03;3.10;;;;;;;;;;5112915;28;20441;-70
2022/10/17 03:04:46;;;;;;;58.00;2.93;;;;;;;;;;5112566;28;20470;-71
2022/10/17 03:07:13;;;;;;;59.53;3.80;;;;;;;;;;5113111;28;20467;-71
2022/10/17 03:09:41;;;;;;;58.40;2.90;;;;;;;;;;5112878;28;20962;-71
2022/10/17 03:12:08;;;;;;;58.07;2.80;;;;;;;;;;5113174;28;20445;-70
2022/10/17 03:14:35;;;;;;;58.73;3.20;;;;;;;;;;5112485;28;20447;-71
2022/10/17 03:17:03;;;;;;;57.80;2.80;;;;;;;;;;5113222;28;20471;-71
2022/10/17 03:19:30;;;;;;;59.50;3.10;;;;;;;;;;5112307;28;20483;-71
2022/10/17 03:21:57;;;;;;;58.03;3.00;;;;;;;;;;5112948;28;20448;-71
2022/10/17 03:24:24;;;;;;;58.40;3.27;;;;;;;;;;5112645;28;20455;-71
2022/10/17 03:26:52;;;;;;;58.07;2.90;;;;;;;;;;5111947;28;20836;-70
2022/10/17 03:29:19;;;;;;;58.60;3.33;;;;;;;;;;5112367;28;20447;-71
2022/10/17 03:31:46;;;;;;;59.10;4.30;;;;;;;;;;5112466;28;20973;-71
2022/10/17 03:34:15;;;;;;;59.57;3.63;;;;;;;;;;5112625;28;20469;-71
2022/10/17 03:36:42;;;;;;;59.40;3.50;;;;;;;;;;5112478;28;20947;-71
2022/10/17 03:39:09;;;;;;;57.90;3.10;;;;;;;;;;5111812;28;20488;-70
2022/10/17 03:41:36;;;;;;;58.40;2.97;;;;;;;;;;5112337;28;20975;-71
2022/10/17 03:44:05;;;;;;;58.20;3.03;;;;;;;;;;5112288;28;20482;-71
2022/10/17 03:46:32;;;;;;;58.73;3.23;;;;;;;;;;5111496;28;20476;-71
2022/10/17 03:48:59;;;;;;;58.60;3.67;;;;;;;;;;5111438;28;20463;-71
2022/10/17 03:51:27;;;;;;;59.27;3.33;;;;;;;;;;5112621;27;20513;-71
2022/10/17 03:53:54;;;;;;;58.00;3.00;;;;;;;;;;5112450;28;20823;-71
2022/10/17 03:56:22;;;;;;;58.60;3.40;;;;;;;;;;5112032;28;20477;-71
2022/10/17 03:58:49;;;;;;;57.60;2.57;;;;;;;;;;5111504;28;20961;-71
2022/10/17 04:01:19;;;;;;;58.30;2.87;;;;;;;;;;5111519;28;20438;-70
2022/10/17 04:03:50;;;;;;;58.07;2.77;;;;;;;;;;5112691;28;20812;-71
2022/10/17 04:06:18;;;;;;;57.57;2.70;;;;;;;;;;5112215;28;20478;-70
2022/10/17 04:08:45;;;;;;;57.73;3.00;;;;;;;;;;5112035;28;20450;-71
2022/10/17 04:11:15;;;;;;;57.93;2.80;;;;;;;;;;5111997;28;20459;-71
2022/10/17 04:13:42;;;;;;;58.63;3.50;;;;;;;;;;5111496;28;20828;-71
2022/10/17 04:16:11;;;;;;;57.70;2.70;;;;;;;;;;5112164;28;20477;-71
2022/10/17 04:18:39;;;;;;;58.20;3.00;;;;;;;;;;5111962;28;20456;-71
2022/10/17 04:21:07;;;;;;;58.40;2.80;;;;;;;;;;5111869;28;21037;-71
2022/10/17 04:23:34;;;;;;;57.80;3.00;;;;;;;;;;5111245;28;20461;-71
2022/10/17 04:26:02;;;;;;;57.67;2.90;;;;;;;;;;5111815;28;20826;-71
2022/10/17 04:28:29;;;;;;;58.87;3.00;;;;;;;;;;5111970;28;20456;-71
2022/10/17 04:30:57;;;;;;;61.20;3.63;;;;;;;;;;5112009;28;20821;-70
2022/10/17 04:33:24;;;;;;;58.50;3.20;;;;;;;;;;5111971;28;20448;-72
2022/10/17 04:35:57;;;;;;;58.63;2.83;;;;;;;;;;5111151;28;20467;-71
2022/10/17 04:38:24;;;;;;;59.27;3.30;;;;;;;;;;5111490;28;20454;-71
2022/10/17 04:40:51;;;;;;;58.43;2.90;;;;;;;;;;5111607;28;20482;-71
2022/10/17 04:43:18;;;;;;;57.73;3.00;;;;;;;;;;5111749;28;20442;-71
2022/10/17 04:45:45;;;;;;;58.10;2.67;;;;;;;;;;5111621;28;20491;-69
2022/10/17 04:48:12;;;;;;;58.20;3.53;;;;;;;;;;5111347;28;20448;-69
2022/10/17 04:50:39;;;;;;;58.87;3.23;;;;;;;;;;5111569;28;20442;-69
2022/10/17 04:53:08;;;;;;;57.70;2.80;;;;;;;;;;5111598;28;20933;-69
2022/10/17 04:55:38;;;;;;;58.27;2.53;;;;;;;;;;5111868;28;20471;-69
2022/10/17 04:58:05;;;;;;;58.30;2.90;;;;;;;;;;5112758;28;20500;-69
2022/10/17 05:00:32;;;;;;;58.40;2.90;;;;;;;;;;5115115;28;21005;-69
2022/10/17 05:02:59;;;;;;;57.97;2.97;;;;;;;;;;5115528;28;20450;-69
2022/10/17 05:05:26;;;;;;;58.50;2.80;;;;;;;;;;5115317;28;20442;-69
2022/10/17 05:07:54;;;;;;;58.07;2.50;;;;;;;;;;5115558;27;20497;-69
2022/10/17 05:10:22;;;;;;;58.40;2.97;;;;;;;;;;5114556;28;20966;-70
2022/10/17 05:12:49;;;;;;;58.30;3.10;;;;;;;;;;5115151;28;20441;-69
2022/10/17 05:15:16;;;;;;;58.40;3.60;;;;;;;;;;5115132;28;20443;-69
2022/10/17 05:17:43;;;;;;;58.30;2.87;;;;;;;;;;5114732;28;20524;-69
2022/10/17 05:20:11;;;;;;;58.13;2.83;;;;;;;;;;5113930;28;20482;-69
2022/10/17 05:22:39;;;;;;;58.20;2.80;;;;;;;;;;5114363;28;20442;-70
2022/10/17 05:25:07;;;;;;;59.17;3.37;;;;;;;;;;5114536;28;20454;-70
2022/10/17 05:27:36;;;;;;;58.40;3.37;;;;;;;;;;5114592;28;20469;-69
2022/10/17 05:30:04;;;;;;;58.17;2.90;;;;;;;;;;5114261;28;20442;-69
2022/10/17 05:32:31;;;;;;;58.70;3.50;;;;;;;;;;5113680;28;20467;-69
2022/10/17 05:34:58;;;;;;;57.77;2.90;;;;;;;;;;5114355;28;20466;-69
2022/10/17 05:37:25;;;;;;;58.50;2.90;;;;;;;;;;5114696;28;20473;-69
2022/10/17 05:39:52;;;;;;;57.77;2.43;;;;;;;;;;5114488;28;20852;-70
2022/10/17 05:42:19;;;;;;;60.53;3.30;;;;;;;;;;5114783;28;20464;-69
2022/10/17 05:44:48;;;;;;;58.20;2.80;;;;;;;;;;5114395;28;20446;-69
2022/10/17 05:47:15;;;;;;;57.80;2.90;;;;;;;;;;5114096;28;20476;-69
2022/10/17 05:49:42;;;;;;;59.57;2.73;;;;;;;;;;5113437;28;20924;-68
2022/10/17 05:52:09;;;;;;;58.27;3.07;;;;;;;;;;5114356;28;20563;-70
2022/10/17 05:54:37;;;;;;;57.90;2.77;;;;;;;;;;5113676;28;20449;-70
2022/10/17 05:57:04;;;;;;;59.07;3.53;;;;;;;;;;5113872;28;20558;-70
2022/10/17 05:59:31;;;;;;;59.50;2.97;;;;;;;;;;5113977;27;20446;-70
2022/10/17 06:01:59;;;;;;;57.83;2.70;;;;;;;;;;5113711;28;20447;-70
2022/10/17 06:04:27;;;;;;;58.53;2.93;;;;;;;;;;5113308;28;20445;-71
2022/10/17 06:06:55;;;;;;;58.60;3.00;;;;;;;;;;5114310;28;20478;-70
2022/10/17 06:09:23;;;;;;;61.60;3.73;;;;;;;;;;5113198;27;20967;-70
2022/10/17 06:11:51;;;;;;;66.23;3.07;;;;;;;;;;5114095;27;20447;-70
2022/10/17 06:14:18;;;;;;;57.80;2.70;;;;;;;;;;5113818;28;20446;-70
2022/10/17 06:16:45;;;;;;;58.60;3.03;;;;;;;;;;5113360;28;20843;-70
2022/10/17 06:19:14;;;;;;;59.50;3.03;;;;;;;;;;5113217;27;20541;-70
2022/10/17 06:21:41;;;;;;;57.73;2.90;;;;;;;;;;5113464;27;20902;-70
2022/10/17 06:24:08;;;;;;;58.07;2.80;;;;;;;;;;5113183;27;20444;-70
2022/10/17 06:26:35;;;;;;;59.17;3.00;;;;;;;;;;5112828;28;20557;-70
2022/10/17 06:29:02;;;;;;;58.27;2.57;;;;;;;;;;5112722;28;20470;-70
2022/10/17 06:31:29;;;;;;;58.00;2.70;;;;;;;;;;5113469;28;20440;-68
2022/10/17 06:33:56;;;;;;;57.87;2.67;;;;;;;;;;5113228;28;20463;-70
2022/10/17 06:36:25;;;;;;;58.80;3.30;;;;;;;;;;5113545;28;20473;-70
2022/10/17 06:38:52;;;;;;;58.10;2.80;;;;;;;;;;5113284;28;20441;-70
2022/10/17 06:41:19;;;;;;;59.60;2.87;;;;;;;;;;5113385;28;20500;-71
2022/10/17 06:43:47;;;;;;;57.67;2.80;;;;;;;;;;5113445;28;20452;-70
2022/10/17 06:46:15;;;;;;;61.30;3.20;;;;;;;;;;5113130;28;20468;-70
2022/10/17 06:48:42;;;;;;;59.07;3.43;;;;;;;;;;5112165;28;20446;-70
2022/10/17 06:51:10;;;;;;;60.27;3.47;;;;;;;;;;5112786;28;20443;-70
2022/10/17 06:53:39;;;;;;;61.10;2.77;;;;;;;;;;5112889;28;20822;-70
2022/10/17 06:56:07;;;;;;;57.90;2.70;;;;;;;;;;5112199;28;20481;-70
2022/10/17 06:58:35;;;;;;;58.20;3.40;;;;;;;;;;5112506;28;20456;-70
2022/10/17 07:01:04;;;;;;;60.60;3.97;;;;;;;;;;5112973;28;20537;-70
2022/10/17 07:03:31;;;;;;;58.97;3.23;;;;;;;;;;5112337;28;20928;-70
2022/10/17 07:05:59;;;;;;;58.07;2.90;;;;;;;;;;5112517;28;21024;-70
2022/10/17 07:08:26;;;;;;;58.57;3.30;;;;;;;;;;5112881;28;20827;-70
2022/10/17 07:10:56;;;;;;;59.07;3.40;;;;;;;;;;5113188;28;20800;-70
2022/10/17 07:13:23;;;;;;;57.97;2.63;;;;;;;;;;5113126;28;20825;-70
2022/10/17 07:15:50;;;;;;;58.40;3.33;;;;;;;;;;5112503;28;20469;-70
2022/10/17 07:18:17;;;;;;;58.10;2.93;;;;;;;;;;5112087;28;20451;-69
2022/10/17 07:20:44;;;;;;;58.27;3.40;;;;;;;;;;5111656;28;20997;-70
2022/10/17 07:23:11;;;;;;;57.60;2.53;;;;;;;;;;5109440;28;20456;-70
2022/10/17 07:25:39;;;;;;;59.80;3.47;;;;;;;;;;5112103;28;20469;-69
2022/10/17 07:28:07;;;;;;;58.57;3.60;;;;;;;;;;5111809;28;20964;-69
2022/10/17 07:30:34;;;;;;;58.20;2.70;;;;;;;;;;5111630;28;20826;-69
2022/10/17 07:33:01;;;;;;;58.37;3.50;;;;;;;;;;5112180;28;20461;-70
2022/10/17 07:35:28;;;;;;;58.13;3.20;;;;;;;;;;5111646;28;20551;-70
2022/10/17 07:37:55;;;;;;;58.50;3.00;;;;;;;;;;5112460;28;20456;-70
2022/10/17 07:40:23;;;;;;;58.40;3.27;;;;;;;;;;5111886;28;21026;-71
2022/10/17 07:42:50;;;;;;;58.20;2.90;;;;;;;;;;5112318;28;20461;-70
2022/10/17 07:45:18;;;;;;;58.20;2.87;;;;;;;;;;5111940;28;20552;-70
2022/10/17 07:47:45;;;;;;;60.20;3.20;;;;;;;;;;5111410;28;20467;-70
2022/10/17 07:50:12;;;;;;;58.20;2.97;;;;;;;;;;5110803;28;20452;-70
2022/10/17 07:52:42;;;;;;;58.70;3.13;;;;;;;;;;5109819;28;20568;-70
2022/10/17 07:55:09;;;;;;;58.80;3.13;;;;;;;;;;5111578;28;20449;-70
2022/10/17 07:57:36;;;;;;;58.00;3.10;;;;;;;;;;5111846;28;20446;-70
2022/10/17 08:00:03;;;;;;;57.67;2.43;;;;;;;;;;5111438;28;20449;-70
2022/10/17 08:02:32;;;;;;;59.40;2.90;;;;;;;;;;5111535;28;20449;-70
2022/10/17 08:04:59;;;;;;;58.07;2.87;;;;;;;;;;5111482;28;20450;-69
2022/10/17 08:07:27;;;;;;;59.20;3.47;;;;;;;;;;5112161;28;20836;-69
2022/10/17 08:09:54;;;;;;;58.50;3.07;;;;;;;;;;5111840;28;20456;-69
2022/10/17 08:12:21;;;;;;;58.00;2.87;;;;;;;;;;5112084;28;20441;-69
2022/10/17 08:14:48;;;;;;;58.80;3.77;;;;;;;;;;5112071;28;20441;-68
2022/10/17 08:17:15;;;;;;;60.00;3.80;;;;;;;;;;5111438;28;20466;-69
2022/10/17 08:19:43;;;;;;;57.97;2.83;;;;;;;;;;5111278;28;20506;-69
2022/10/17 08:22:10;;;;;;;58.50;3.33;;;;;;;;;;5111552;28;20492;-69
2022/10/17 08:24:38;;;;;;;58.90;3.50;;;;;;;;;;5111574;28;20473;-69
2022/10/17 08:27:10;;;;;;;57.87;3.03;;;;;;;;;;5109807;28;20461;-69
2022/10/17 08:29:37;;;;;;;58.37;3.17;;;;;;;;;;5111097;28;20481;-69
2022/10/17 08:32:05;;;;;;;59.23;3.70;;;;;;;;;;5111609;28;20533;-69
2022/10/17 08:34:32;;;;;;;58.80;3.07;;;;;;;;;;5114938;28;20461;-69
2022/10/17 08:37:00;;;;;;;58.57;3.63;;;;;;;;;;5114807;28;20473;-69
2022/10/17 08:39:28;;;;;;;58.40;3.10;;;;;;;;;;5115015;28;20446;-69
2022/10/17 08:42:04;;;;;;;59.47;3.57;;;;;;;;;;5115352;28;20488;-69
2022/10/17 08:44:36;;;;;;;63.50;7.47;;;;;;;;;;5115267;28;20445;-68
2022/10/17 08:47:05;;;;;;;59.97;4.40;;;;;;;;;;5115569;28;20460;-70
2022/10/17 08:49:37;;;;;;;58.70;3.20;;;;;;;;;;5114749;28;20446;-70
2022/10/17 08:52:08;;;;;;;58.20;3.27;;;;;;;;;;5114494;28;20449;-70
2022/10/17 08:54:39;;;;;;;59.60;3.43;;;;;;;;;;5114927;28;20445;-70
2022/10/17 08:57:11;;;;;;;58.00;2.90;;;;;;;;;;5114087;27;20555;-69
2022/10/17 08:59:38;;;;;;;59.77;3.23;;;;;;;;;;5113974;28;20641;-69
2022/10/17 09:02:16;;;;;;;58.47;3.20;;;;;;;;;;5114405;28;20492;-69
2022/10/17 09:04:50;;;;;;;58.20;2.93;;;;;;;;;;5114241;28;20919;-69
2022/10/17 09:07:22;;;;;;;58.47;3.20;;;;;;;;;;5114346;28;20479;-69
2022/10/17 09:09:54;;;;;;;58.27;3.20;;;;;;;;;;5114243;28;20975;-69
2022/10/17 09:12:24;;;;;;;59.23;3.77;;;;;;;;;;5114963;28;20441;-68
2022/10/17 09:14:59;;;;;;;58.93;3.10;;;;;;;;;;5115049;27;20445;-69
2022/10/17 09:17:31;;;;;;;58.27;2.60;;;;;;;;;;5113959;28;20457;-69
2022/10/17 09:20:00;;;;;;;58.13;3.07;;;;;;;;;;5114251;28;20934;-69
2022/10/17 09:22:32;;;;;;;58.27;2.93;;;;;;;;;;5114482;28;20503;-69
2022/10/17 09:25:02;;;;;;;58.87;2.77;;;;;;;;;;5114717;28;20454;-70
2022/10/17 09:27:34;;;;;;;57.73;2.40;;;;;;;;;;5114424;28;20465;-70
2022/10/17 09:30:11;;;;;;;57.97;2.53;;;;;;;;;;5114068;28;20508;-68
2022/10/17 09:32:39;;;;;;;57.70;2.27;;;;;;;;;;5114388;28;20446;-68
2022/10/17 09:35:12;;;;;;;58.00;2.60;;;;;;;;;;5113479;28;20489;-68
2022/10/17 09:37:41;;;;;;;57.87;2.30;;;;;;;;;;5114714;27;20528;-68
2022/10/17 09:40:13;;;;;;;58.10;2.33;;;;;;;;;;5114331;27;20460;-68
2022/10/17 09:42:40;;;;;;;59.80;2.53;;;;;;;;;;5114487;28;20492;-68
2022/10/17 09:45:18;;;;;;;58.10;2.50;;;;;;;;;;5113524;28;20465;-68
2022/10/17 09:47:47;;;;;;;57.17;2.17;;;;;;;;;;5114149;28;20451;-68
2022/10/17 09:50:18;;;;;;;58.20;2.13;;;;;;;;;;5113317;28;20449;-69
2022/10/17 09:52:49;;;;;;;57.70;2.20;;;;;;;;;;5113615;28;20453;-68
2022/10/17 09:55:17;;;;;;;57.90;2.20;;;;;;;;;;5113717;28;20472;-69
2022/10/17 09:57:55;;;;;;;59.00;2.40;;;;;;;;;;5113340;28;20449;-69
2022/10/17 10:00:23;;;;;;;57.27;2.20;;;;;;;;;;5113644;28;20445;-69
2022/10/17 10:02:50;;;;;;;57.40;2.20;;;;;;;;;;5113774;28;20485;-70
2022/10/17 10:05:19;;;;;;;57.30;2.00;;;;;;;;;;5112941;28;20449;-69
2022/10/17 10:08:01;;;;;;;57.50;2.20;;;;;;;;;;5113439;28;20804;-69
2022/10/17 10:10:29;;;;;;;57.20;1.87;;;;;;;;;;5114074;28;20452;-69
2022/10/17 10:13:03;;;;;;;57.87;2.00;;;;;;;;;;5114236;28;20441;-69
2022/10/17 10:15:33;;;;;;;57.47;2.07;;;;;;;;;;5113999;28;20461;-69
2022/10/17 10:18:00;;;;;;;57.70;2.30;;;;;;;;;;5113097;27;20881;-69
2022/10/17 10:20:29;;;;;;;57.20;1.87;;;;;;;;;;5113208;28;20442;-69
2022/10/17 10:23:07;;;;;;;57.30;2.00;;;;;;;;;;5113377;28;20488;-69
2022/10/17 10:25:34;;;;;;;57.20;2.03;;;;;;;;;;5113196;28;20465;-69
2022/10/17 10:28:01;;;;;;;57.47;1.90;;;;;;;;;;5113393;28;20456;-69
2022/10/17 10:30:29;;;;;;;57.40;1.90;;;;;;;;;;5112426;28;20490;-68
2022/10/17 10:32:58;;;;;;;57.60;2.10;;;;;;;;;;5113108;28;20958;-69
2022/10/17 10:35:34;;;;;;;57.00;2.10;;;;;;;;;;5112882;28;20527;-69
2022/10/17 10:38:02;;;;;;;56.87;1.93;;;;;;;;;;5113354;28;20445;-69
2022/10/17 10:40:32;;;;;;;58.03;2.13;;;;;;;;;;5113260;28;20453;-69
2022/10/17 10:43:00;;;;;;;57.20;2.00;;;;;;;;;;5113316;28;20489;-69
2022/10/17 10:45:29;;;;;;;56.77;2.00;;;;;;;;;;5113265;28;20438;-69
2022/10/17 10:47:57;;;;;;;58.13;2.53;;;;;;;;;;5112669;28;20544;-68
2022/10/17 10:50:27;;;;;;;57.10;2.13;;;;;;;;;;5112216;28;20452;-69
2022/10/17 10:52:59;;;;;;;56.67;2.00;;;;;;;;;;5112184;28;20938;-69
2022/10/17 10:55:30;;;;;;;56.97;2.20;;;;;;;;;;5112415;28;20446;-68
2022/10/17 10:58:02;;;;;;;57.20;2.17;;;;;;;;;;5112015;28;20464;-68
2022/10/17 11:00:29;;;;;;;57.50;2.30;;;;;;;;;;5112449;28;20452;-69
2022/10/17 11:03:00;;;;;;;56.93;2.03;;;;;;;;;;5112498;28;20488;-69
2022/10/17 11:05:36;;;;;;;56.80;2.20;;;;;;;;;;5112302;28;20929;-69
2022/10/17 11:08:06;;;;;;;57.27;2.73;;;;;;;;;;5111898;28;20449;-69
2022/10/17 11:10:36;;;;;;;56.77;1.90;;;;;;;;;;5112976;28;20464;-69
2022/10/17 11:13:07;;;;;;;57.00;2.23;;;;;;;;;;5113007;28;20442;-69
2022/10/17 11:15:37;;;;;;;56.57;1.80;;;;;;;;;;5112928;28;20841;-69
2022/10/17 11:18:05;;;;;;;56.90;1.93;;;;;;;;;;5112220;28;20446;-69
2022/10/17 11:20:37;;;;;;;56.47;1.80;;;;;;;;;;5111694;28;20450;-69
2022/10/17 11:23:18;;;;;;;59.87;4.10;;;;;;;;;;5111891;28;20488;-68
2022/10/17 11:25:47;;;;;;;57.00;1.90;;;;;;;;;;5112511;28;20473;-69
2022/10/17 11:28:17;;;;;;;56.57;2.13;;;;;;;;;;5111898;28;20552;-70
2022/10/17 11:30:46;;;;;;;56.37;1.80;;;;;;;;;;5111691;28;20450;-70
2022/10/17 11:33:17;;;;;;;56.83;2.20;;;;;;;;;;5110954;28;20460;-70
2022/10/17 11:35:45;;;;;;;58.00;2.37;;;;;;;;;;5111861;28;20477;-68
2022/10/17 11:38:16;;;;;;;56.80;2.00;;;;;;;;;;5111876;28;20451;-68
2022/10/17 11:40:45;;;;;;;57.20;2.20;;;;;;;;;;5112327;28;20446;-68
2022/10/17 11:43:14;;;;;;;56.37;2.00;;;;;;;;;;5112404;28;20489;-68
2022/10/17 11:45:45;;;;;;;56.63;1.90;;;;;;;;;;5112266;28;20465;-68
2022/10/17 11:48:14;;;;;;;57.77;2.77;;;;;;;;;;5112268;28;20453;-68
2022/10/17 11:50:43;;;;;;;57.20;2.20;;;;;;;;;;5111312;28;20821;-68
2022/10/17 11:53:12;;;;;;;57.17;2.00;;;;;;;;;;5111807;28;20453;-68
2022/10/17 11:55:39;;;;;;;57.30;2.10;;;;;;;;;;5111696;28;20469;-68
2022/10/17 11:58:21;;;;;;;56.67;2.00;;;;;;;;;;5111513;28;20451;-67
2022/10/17 12:00:53;;;;;;;57.00;2.23;;;;;;;;;;5110719;28;20833;-68
2022/10/17 12:03:27;;;;;;;56.70;2.43;;;;;;;;;;5111470;28;20488;-68
2022/10/17 12:05:57;;;;;;;56.90;2.27;;;;;;;;;;5111508;28;20988;-68
2022/10/17 12:08:26;;;;;;;56.27;1.87;;;;;;;;;;5110842;28;20841;-68
2022/10/17 12:10:56;;;;;;;56.60;2.13;;;;;;;;;;5112123;28;20446;-68
2022/10/17 12:13:42;;;;;;;57.00;2.13;;;;;;;;;;5112035;28;20960;-68
2022/10/17 12:16:27;;;;;;;56.40;2.00;;;;;;;;;;5111970;28;20469;-68
2022/10/17 12:19:20;;;;;;;56.27;2.10;;;;;;;;;;5110893;28;20467;-69
2022/10/17 12:21:57;;;;;;;56.10;2.30;;;;;;;;;;5111002;28;20484;-69
2022/10/17 12:24:32;;;;;;;56.47;2.10;;;;;;;;;;5111086;28;20457;-69
2022/10/17 12:26:59;;;;;;;57.33;2.00;;;;;;;;;;5111378;28;20471;-68
2022/10/17 12:29:28;;;;;;;57.57;2.43;;;;;;;;;;5110322;28;20446;-68
2022/10/17 12:31:55;;;;;;;56.27;2.00;;;;;;;;;;5111438;28;20442;-68
2022/10/17 12:34:24;;;;;;;56.07;1.90;;;;;;;;;;5111272;28;20465;-68
2022/10/17 12:36:51;;;;;;;56.47;1.97;;;;;;;;;;5110907;28;20982;-68
2022/10/17 12:39:49;;;;;;;56.07;1.83;;;;;;;;;;5110770;28;20438;-68
2022/10/17 12:42:47;;;;;;;56.20;1.77;;;;;;;;;;5111967;28;20538;-68
2022/10/17 12:45:32;;;;;;;56.07;1.70;;;;;;;;;;5048846;28;20971;-68
2022/10/17 12:47:59;;;;;;;56.27;1.90;;;;;;;;;;5104801;28;20449;-68
2022/10/17 12:50:44;;;;;;;56.47;1.80;;;;;;;;;;5110379;28;20968;-68
2022/10/17 12:53:17;;;;;;;56.70;1.93;;;;;;;;;;5110800;28;20446;-68
2022/10/17 12:55:44;;;;;;;56.60;2.00;;;;;;;;;;5111214;28;20471;-68
2022/10/17 12:58:13;;;;;;;56.63;2.33;;;;;;;;;;5111055;28;20449;-68
2022/10/17 13:00:43;;;;;;;56.10;1.90;;;;;;;;;;5110063;28;20449;-68
2022/10/17 13:03:13;;;;;;;56.20;2.23;;;;;;;;;;5110893;28;20485;-68
2022/10/17 13:05:42;;;;;;;60.60;2.20;;;;;;;;;;5111195;28;20568;-68
2022/10/17 13:08:15;;;;;;;57.23;2.27;;;;;;;;;;5111443;28;20832;-68
2022/10/17 13:10:45;;;;;;;56.20;2.10;;;;;;;;;;5111377;28;20458;-68
2022/10/17 13:13:16;;;;;;;56.10;2.10;;;;;;;;;;5111489;28;20448;-68
2022/10/17 13:15:46;;;;;;;58.77;2.27;;;;;;;;;;5111630;28;20465;-68
2022/10/17 13:18:18;;;;;;;55.80;2.10;;;;;;;;;;5111465;28;20437;-69
2022/10/17 13:20:54;;;;;;;55.77;1.80;;;;;;;;;;5114164;28;20956;-68
2022/10/17 13:23:23;;;;;;;56.27;2.40;;;;;;;;;;5114710;28;20434;-68
2022/10/17 13:26:03;;;;;;;55.87;1.80;;;;;;;;;;5114422;28;20462;-68
2022/10/17 13:28:30;;;;;;;56.00;1.77;;;;;;;;;;5114329;28;20440;-68
2022/10/17 13:30:57;;;;;;;56.40;2.20;;;;;;;;;;5113936;28;20451;-68
2022/10/17 13:33:31;;;;;;;55.57;1.70;;;;;;;;;;5113958;28;20568;-68
2022/10/17 13:35:58;;;;;;;57.23;2.20;;;;;;;;;;5113995;28;20484;-68
2022/10/17 13:38:27;;;;;;;56.30;2.10;;;;;;;;;;5114035;28;20441;-68
2022/10/17 13:40:54;;;;;;;56.10;2.03;;;;;;;;;;5114476;28;20450;-68
2022/10/17 13:43:24;;;;;;;56.80;2.10;;;;;;;;;;5114950;28;20444;-69
2022/10/17 13:45:52;;;;;;;56.10;2.20;;;;;;;;;;5114432;28;20472;-68
2022/10/17 13:48:20;;;;;;;56.17;2.30;;;;;;;;;;5114452;28;20960;-69
2022/10/17 13:50:49;;;;;;;56.60;2.40;;;;;;;;;;5113315;28;20441;-69
2022/10/17 13:53:21;;;;;;;56.03;1.90;;;;;;;;;;5113823;28;20481;-69
2022/10/17 13:55:55;;;;;;;56.13;2.10;;;;;;;;;;5113731;28;20468;-69
2022/10/17 13:58:24;;;;;;;56.30;2.10;;;;;;;;;;5113476;28;20540;-68
2022/10/17 14:00:51;;;;;;;56.40;2.20;;;;;;;;;;5113340;28;20442;-68
2022/10/17 14:03:20;;;;;;;56.90;2.07;;;;;;;;;;5113642;28;20480;-68
2022/10/17 14:06:01;;;;;;;56.20;2.17;;;;;;;;;;5113756;28;20465;-68
2022/10/17 14:08:28;;;;;;;56.60;2.40;;;;;;;;;;5112634;28;20536;-69
2022/10/17 14:10:56;;;;;;;56.83;2.00;;;;;;;;;;5113830;28;20441;-69
2022/10/17 14:13:26;;;;;;;56.40;2.00;;;;;;;;;;5113990;28;20565;-68
2022/10/17 14:15:54;;;;;;;56.50;2.03;;;;;;;;;;5113830;28;20461;-68
2022/10/17 14:18:22;;;;;;;57.27;2.53;;;;;;;;;;5114054;28;20441;-68
2022/10/17 14:20:50;;;;;;;56.47;2.10;;;;;;;;;;5112742;28;20449;-68
2022/10/17 14:23:30;;;;;;;56.40;2.33;;;;;;;;;;5113317;28;20457;-68
2022/10/17 14:26:05;;;;;;;56.17;2.07;;;;;;;;;;5113192;28;20472;-68
2022/10/17 14:28:34;;;;;;;56.47;2.10;;;;;;;;;;5112964;28;20921;-68
2022/10/17 14:31:12;;;;;;;56.60;2.20;;;;;;;;;;5112006;28;20529;-68
2022/10/17 14:33:44;;;;;;;57.33;2.43;;;;;;;;;;5113094;28;20481;-68
2022/10/17 14:36:11;;;;;;;56.80;2.23;;;;;;;;;;5112920;28;20480;-68
2022/10/17 14:38:39;;;;;;;57.33;2.07;;;;;;;;;;5112602;28;20446;-68
2022/10/17 14:41:07;;;;;;;56.67;2.00;;;;;;;;;;5113608;28;20441;-68
2022/10/17 14:43:36;;;;;;;56.80;2.10;;;;;;;;;;5113628;28;20521;-68
2022/10/17 14:46:04;;;;;;;56.77;2.10;;;;;;;;;;5113369;28;20461;-68